createdAt,value
2018-11-12T00:00:17.409Z,9.93
2018-11-12T00:02:48.585Z,10.23
2018-11-12T00:05:18.182Z,9.53
2018-11-12T00:07:47.105Z,8.10
2018-11-12T00:10:15.959Z,8.67
2018-11-12T00:12:44.844Z,9.33
2018-11-12T00:15:13.704Z,8.30
2018-11-12T00:17:42.563Z,7.50
2018-11-12T00:20:12.820Z,8.97
2018-11-12T00:22:42.031Z,8.50
2018-11-12T00:25:10.877Z,9.10
2018-11-12T00:27:40.046Z,8.63
2018-11-12T00:30:10.764Z,8.43
2018-11-12T00:32:39.618Z,8.20
2018-11-12T00:35:09.453Z,8.67
2018-11-12T00:37:38.555Z,6.87
2018-11-12T00:40:09.390Z,8.67
2018-11-12T00:42:38.260Z,8.20
2018-11-12T00:45:07.685Z,8.73
2018-11-12T00:47:36.780Z,8.93
2018-11-12T00:50:06.396Z,7.77
2018-11-12T00:52:35.600Z,7.90
2018-11-12T00:55:04.743Z,8.83
2018-11-12T00:57:33.755Z,8.23
2018-11-12T01:00:02.609Z,9.57
2018-11-12T01:02:31.469Z,7.83
2018-11-12T01:05:00.326Z,7.97
2018-11-12T01:07:29.184Z,6.93
2018-11-12T01:09:58.056Z,7.20
2018-11-12T01:12:26.904Z,7.53
2018-11-12T01:14:55.761Z,8.80
2018-11-12T01:17:24.634Z,8.30
2018-11-12T01:19:53.504Z,8.17
2018-11-12T01:22:22.349Z,8.50
2018-11-12T01:24:51.204Z,9.03
2018-11-12T01:27:20.064Z,8.17
2018-11-12T01:29:49.253Z,7.63
2018-11-12T01:32:18.105Z,9.83
2018-11-12T01:34:46.981Z,9.63
2018-11-12T01:37:15.833Z,9.60
2018-11-12T01:39:44.750Z,8.90
2018-11-12T01:42:13.745Z,9.93
2018-11-12T01:44:42.556Z,9.83
2018-11-12T01:47:11.402Z,9.30
2018-11-12T01:49:40.257Z,8.47
2018-11-12T01:52:09.118Z,7.90
2018-11-12T01:54:37.977Z,8.80
2018-11-12T01:57:06.830Z,8.83
2018-11-12T01:59:35.717Z,8.10
2018-11-12T02:02:05.231Z,8.20
2018-11-12T02:04:34.120Z,10.10
2018-11-12T02:07:02.966Z,8.90
2018-11-12T02:09:31.848Z,9.13
2018-11-12T02:12:00.728Z,10.90
2018-11-12T02:14:29.646Z,10.03
2018-11-12T02:16:58.539Z,10.23
2018-11-12T02:19:27.401Z,9.53
2018-11-12T02:21:56.252Z,9.23
2018-11-12T02:24:25.237Z,9.67
2018-11-12T02:26:54.117Z,9.50
2018-11-12T02:29:23.008Z,9.40
2018-11-12T02:31:51.863Z,8.67
2018-11-12T02:34:20.742Z,8.47
2018-11-12T02:36:49.597Z,8.77
2018-11-12T02:39:18.457Z,9.80
2018-11-12T02:41:47.313Z,8.10
2018-11-12T02:44:16.171Z,8.93
2018-11-12T02:46:45.018Z,9.93
2018-11-12T02:49:13.881Z,10.77
2018-11-12T02:51:42.753Z,11.47
2018-11-12T02:54:11.634Z,9.63
2018-11-12T02:56:40.495Z,9.60
2018-11-12T02:59:09.346Z,9.77
2018-11-12T03:01:38.298Z,10.17
2018-11-12T03:04:07.250Z,9.87
2018-11-12T03:06:36.122Z,10.27
2018-11-12T03:09:09.317Z,9.90
2018-11-12T03:11:38.246Z,11.30
2018-11-12T03:14:07.100Z,10.60
2018-11-12T03:16:35.981Z,12.53
2018-11-12T03:19:05.134Z,9.37
2018-11-12T03:21:34.242Z,10.87
2018-11-12T03:24:03.135Z,10.43
2018-11-12T03:26:31.997Z,11.00
2018-11-12T03:29:00.859Z,10.43
2018-11-12T03:31:29.770Z,11.80
2018-11-12T03:33:58.629Z,10.07
2018-11-12T03:36:27.485Z,10.37
2018-11-12T03:38:56.332Z,11.17
2018-11-12T03:41:25.196Z,10.27
2018-11-12T03:43:54.059Z,10.90
2018-11-12T03:46:22.912Z,10.83
2018-11-12T03:48:51.776Z,11.50
2018-11-12T03:51:20.722Z,10.20
2018-11-12T03:53:49.671Z,9.80
2018-11-12T03:56:18.555Z,11.37
2018-11-12T03:58:47.417Z,10.30
2018-11-12T04:01:16.277Z,10.93
2018-11-12T04:03:45.159Z,13.13
2018-11-12T04:06:14.008Z,10.27
2018-11-12T04:08:42.871Z,12.97
2018-11-12T04:11:11.740Z,12.13
2018-11-12T04:13:40.605Z,10.60
2018-11-12T04:16:09.539Z,12.40
2018-11-12T04:18:38.423Z,11.27
2018-11-12T04:21:07.272Z,9.60
2018-11-12T04:23:36.132Z,11.13
2018-11-12T04:26:05.041Z,10.90
2018-11-12T04:28:33.961Z,11.60
2018-11-12T04:31:02.805Z,12.10
2018-11-12T04:33:31.675Z,9.93
2018-11-12T04:36:00.705Z,11.80
2018-11-12T04:38:29.588Z,13.63
2018-11-12T04:40:58.427Z,13.20
2018-11-12T04:43:27.285Z,12.53
2018-11-12T04:45:56.137Z,11.80
2018-11-12T04:48:24.979Z,12.37
2018-11-12T04:50:53.825Z,9.07
2018-11-12T04:53:22.718Z,11.00
2018-11-12T04:55:51.532Z,11.00
2018-11-12T04:58:20.425Z,12.43
2018-11-12T05:00:49.265Z,11.13
2018-11-12T05:03:18.148Z,11.47
2018-11-12T05:05:47.019Z,11.33
2018-11-12T05:08:15.878Z,10.60
2018-11-12T05:10:44.724Z,10.07
2018-11-12T05:13:13.591Z,11.37
2018-11-12T05:15:42.454Z,12.03
2018-11-12T05:18:11.315Z,10.70
2018-11-12T05:20:40.239Z,9.83
2018-11-12T05:23:09.099Z,9.47
2018-11-12T05:25:37.957Z,10.93
2018-11-12T05:28:06.813Z,10.03
2018-11-12T05:30:35.666Z,10.17
2018-11-12T05:33:04.544Z,10.07
2018-11-12T05:35:33.401Z,9.87
2018-11-12T05:38:02.314Z,10.13
2018-11-12T05:40:31.124Z,10.00
2018-11-12T05:43:00.001Z,9.13
2018-11-12T05:45:29.373Z,8.37
2018-11-12T05:47:58.255Z,9.00
2018-11-12T05:50:28.389Z,8.53
2018-11-12T05:52:59.761Z,9.23
2018-11-12T05:55:29.549Z,8.20
2018-11-12T05:57:58.540Z,8.60
2018-11-12T06:00:30.804Z,8.73
2018-11-12T06:02:59.731Z,8.47
2018-11-12T06:05:28.704Z,8.70
2018-11-12T06:07:57.565Z,8.17
2018-11-12T06:10:27.708Z,10.27
2018-11-12T06:12:56.590Z,9.27
2018-11-12T06:15:25.439Z,9.40
2018-11-12T06:17:54.423Z,8.27
2018-11-12T06:20:28.514Z,9.10
2018-11-12T06:23:01.201Z,8.63
2018-11-12T06:25:33.569Z,9.27
2018-11-12T06:28:02.533Z,11.50
2018-11-12T06:30:33.774Z,11.73
2018-11-12T06:33:02.623Z,9.30
2018-11-12T06:35:31.524Z,9.50
2018-11-12T06:38:00.405Z,8.83
2018-11-12T06:40:29.747Z,10.97
2018-11-12T06:42:58.588Z,8.73
2018-11-12T06:45:28.639Z,10.67
2018-11-12T06:47:58.188Z,10.27
2018-11-12T06:50:28.285Z,11.10
2018-11-12T06:52:57.648Z,9.40
2018-11-12T06:55:26.431Z,9.90
2018-11-12T06:57:55.478Z,12.97
2018-11-12T07:00:27.440Z,12.50
2018-11-12T07:02:56.334Z,12.57
2018-11-12T07:05:25.450Z,9.87
2018-11-12T07:07:54.322Z,8.57
2018-11-12T07:10:24.342Z,13.47
2018-11-12T07:12:59.619Z,12.93
2018-11-12T07:15:43.381Z,9.97
2018-11-12T07:18:29.913Z,9.53
2018-11-12T07:20:58.793Z,9.50
2018-11-12T07:23:27.646Z,9.20
2018-11-12T07:25:56.496Z,10.30
2018-11-12T07:28:25.349Z,7.97
2018-11-12T07:30:54.281Z,8.20
2018-11-12T07:33:23.067Z,7.93
2018-11-12T07:35:51.932Z,7.53
2018-11-12T07:38:20.777Z,7.03
2018-11-12T07:40:49.773Z,6.23
2018-11-12T07:43:18.630Z,6.30
2018-11-12T07:45:47.625Z,6.17
2018-11-12T07:48:16.513Z,6.27
2018-11-12T07:50:45.361Z,6.27
2018-11-12T07:53:14.246Z,6.10
2018-11-12T07:55:43.133Z,5.27
2018-11-12T07:58:11.986Z,5.63
2018-11-12T08:00:40.960Z,5.50
2018-11-12T08:03:10.995Z,6.30
2018-11-12T08:05:40.600Z,6.40
2018-11-12T08:08:09.858Z,6.37
2018-11-12T08:10:38.712Z,6.30
2018-11-12T08:13:07.574Z,6.83
2018-11-12T08:15:36.445Z,5.87
2018-11-12T08:18:05.425Z,5.67
2018-11-12T08:20:34.276Z,6.40
2018-11-12T08:23:03.147Z,5.50
2018-11-12T08:25:32.034Z,6.13
2018-11-12T08:28:00.952Z,5.60
2018-11-12T08:30:30.357Z,5.20
2018-11-12T08:33:00.469Z,4.50
2018-11-12T08:35:29.280Z,4.40
2018-11-12T08:37:58.724Z,6.27
2018-11-12T08:40:28.662Z,5.97
2018-11-12T08:42:57.473Z,5.80
2018-11-12T08:45:26.381Z,4.73
2018-11-12T08:47:56.012Z,5.77
2018-11-12T08:50:25.972Z,4.60
2018-11-12T08:52:55.562Z,4.77
2018-11-12T08:55:25.920Z,4.93
2018-11-12T08:57:56.005Z,4.70
2018-11-12T09:00:25.634Z,4.40
2018-11-12T09:02:54.500Z,4.00
2018-11-12T09:05:24.704Z,4.13
2018-11-12T09:07:55.127Z,4.30
2018-11-12T09:10:28.755Z,4.00
2018-11-12T09:12:57.959Z,3.73
2018-11-12T09:15:26.929Z,4.03
2018-11-12T09:17:55.797Z,4.60
2018-11-12T09:20:25.840Z,4.90
2018-11-12T09:22:55.135Z,3.97
2018-11-12T09:25:25.364Z,4.40
2018-11-12T09:27:54.261Z,4.30
2018-11-12T09:30:25.172Z,4.53
2018-11-12T09:32:54.048Z,4.53
2018-11-12T09:35:25.029Z,4.63
2018-11-12T09:37:54.609Z,3.83
2018-11-12T09:40:28.062Z,3.70
2018-11-12T09:42:56.936Z,4.30
2018-11-12T09:45:25.789Z,4.10
2018-11-12T09:47:54.733Z,4.90
2018-11-12T09:50:24.514Z,4.93
2018-11-12T09:52:54.470Z,4.00
2018-11-12T09:55:24.330Z,4.40
2018-11-12T09:57:57.752Z,4.70
2018-11-12T10:00:26.780Z,4.50
2018-11-12T10:02:56.208Z,3.90
2018-11-12T10:05:25.878Z,4.90
2018-11-12T10:08:00.783Z,4.50
2018-11-12T10:10:37.541Z,4.63
2018-11-12T10:13:10.182Z,4.57
2018-11-12T10:15:38.133Z,4.83
2018-11-12T10:18:07.356Z,4.73
2018-11-12T10:20:32.756Z,5.77
2018-11-12T10:23:01.625Z,4.43
2018-11-12T10:25:30.483Z,4.33
2018-11-12T10:27:59.204Z,4.20
2018-11-12T10:30:28.434Z,4.27
2018-11-12T10:32:57.458Z,4.17
2018-11-12T10:35:26.459Z,4.53
2018-11-12T10:37:55.408Z,4.40
2018-11-12T10:40:25.042Z,4.10
2018-11-12T10:42:53.921Z,4.57
2018-11-12T10:45:22.817Z,4.23
2018-11-12T10:47:52.711Z,4.67
2018-11-12T10:50:22.007Z,4.20
2018-11-12T10:52:51.125Z,4.73
2018-11-12T10:55:22.320Z,4.53
2018-11-12T10:57:51.582Z,4.17
2018-11-12T11:00:28.168Z,4.93
2018-11-12T11:03:03.920Z,4.80
2018-11-12T11:05:33.228Z,4.63
2018-11-12T11:08:02.177Z,4.60
2018-11-12T11:10:31.656Z,5.30
2018-11-12T11:13:01.977Z,5.60
2018-11-12T11:15:31.814Z,5.43
2018-11-12T11:18:00.692Z,4.27
2018-11-12T11:20:29.813Z,4.87
2018-11-12T11:22:59.155Z,4.40
2018-11-12T11:25:28.229Z,4.70
2018-11-12T11:27:57.186Z,4.50
2018-11-12T11:30:26.105Z,4.83
2018-11-12T11:32:55.026Z,4.63
2018-11-12T11:35:23.881Z,5.10
2018-11-12T11:37:52.828Z,5.20
2018-11-12T11:40:25.976Z,4.60
2018-11-12T11:42:54.733Z,5.17
2018-11-12T11:45:23.816Z,4.43
2018-11-12T11:47:53.572Z,5.17
2018-11-12T11:50:23.917Z,5.37
2018-11-12T11:52:52.778Z,5.33
2018-11-12T11:55:22.948Z,5.20
2018-11-12T11:57:52.217Z,4.73
2018-11-12T12:00:28.729Z,5.37
2018-11-12T12:02:58.700Z,4.50
2018-11-12T12:05:27.997Z,4.83
2018-11-12T12:07:57.401Z,4.33
2018-11-12T12:10:26.293Z,4.60
2018-11-12T12:12:55.286Z,4.73
2018-11-12T12:15:24.721Z,4.37
2018-11-12T12:17:53.779Z,4.47
2018-11-12T12:20:23.911Z,4.73
2018-11-12T12:22:53.276Z,4.97
2018-11-12T12:25:22.242Z,4.30
2018-11-12T12:27:51.360Z,4.53
2018-11-12T12:30:21.701Z,4.50
2018-11-12T12:32:51.451Z,4.27
2018-11-12T12:35:22.506Z,4.83
2018-11-12T12:37:51.444Z,4.50
2018-11-12T12:40:21.461Z,4.67
2018-11-12T12:42:50.447Z,4.27
2018-11-12T12:45:20.788Z,3.87
2018-11-12T12:47:49.866Z,4.23
2018-11-12T12:50:19.281Z,3.67
2018-11-12T12:52:48.215Z,4.10
2018-11-12T12:55:17.481Z,4.33
2018-11-12T12:57:46.752Z,3.97
2018-11-12T13:00:18.673Z,3.80
2018-11-12T13:02:47.723Z,3.90
2018-11-12T13:05:16.556Z,4.07
2018-11-12T13:07:45.607Z,3.93
2018-11-12T13:10:16.106Z,4.07
2018-11-12T13:12:45.029Z,4.10
2018-11-12T13:15:15.483Z,4.23
2018-11-12T13:17:45.082Z,4.27
2018-11-12T13:20:15.211Z,3.77
2018-11-12T13:22:44.590Z,3.90
2018-11-12T13:25:13.781Z,4.20
2018-11-12T13:27:44.829Z,4.00
2018-11-12T13:30:16.482Z,4.10
2018-11-12T13:32:46.191Z,3.70
2018-11-12T13:35:16.521Z,3.33
2018-11-12T13:37:45.508Z,4.10
2018-11-12T13:40:19.356Z,3.90
2018-11-12T13:42:49.978Z,3.97
2018-11-12T13:45:19.005Z,4.83
2018-11-12T13:47:48.077Z,4.57
2018-11-12T13:50:18.397Z,4.20
2018-11-12T13:52:47.588Z,4.10
2018-11-12T13:55:17.713Z,4.10
2018-11-12T13:57:46.605Z,3.60
2018-11-12T14:00:17.657Z,4.53
2018-11-12T14:02:47.354Z,4.80
2018-11-12T14:05:17.506Z,3.80
2018-11-12T14:07:47.773Z,4.20
2018-11-12T14:10:18.944Z,4.40
2018-11-12T14:12:48.217Z,3.90
2018-11-12T14:15:18.975Z,4.27
2018-11-12T14:17:48.468Z,4.03
2018-11-12T14:20:17.847Z,3.80
2018-11-12T14:22:46.941Z,4.77
2018-11-12T14:25:17.801Z,3.90
2018-11-12T14:27:48.176Z,4.03
2018-11-12T14:30:18.309Z,3.63
2018-11-12T14:32:47.163Z,3.90
2018-11-12T14:35:16.069Z,3.87
2018-11-12T14:37:45.954Z,4.10
2018-11-12T14:40:15.923Z,4.00
2018-11-12T14:42:44.811Z,3.97
2018-11-12T14:45:16.178Z,4.53
2018-11-12T14:47:45.508Z,4.60
2018-11-12T14:50:14.410Z,3.90
2018-11-12T14:52:43.355Z,4.27
2018-11-12T14:55:13.515Z,4.80
2018-11-12T14:57:42.553Z,4.17
2018-11-12T15:00:15.226Z,4.07
2018-11-12T15:02:44.180Z,4.33
2018-11-12T15:05:13.421Z,5.13
2018-11-12T15:07:42.340Z,6.00
2018-11-12T15:10:12.242Z,6.20
2018-11-12T15:12:41.427Z,5.30
2018-11-12T15:15:11.420Z,6.23
2018-11-12T15:17:40.473Z,6.67
2018-11-12T15:20:14.353Z,6.07
2018-11-12T15:22:43.691Z,5.90
2018-11-12T15:25:15.752Z,5.93
2018-11-12T15:27:45.216Z,5.70
2018-11-12T15:30:23.192Z,5.77
2018-11-12T15:32:53.677Z,5.70
2018-11-12T15:35:22.605Z,6.67
2018-11-12T15:37:51.953Z,6.63
2018-11-12T15:40:20.909Z,6.67
2018-11-12T15:42:49.784Z,7.07
2018-11-12T15:45:24.088Z,13.77
2018-11-12T15:47:53.000Z,10.03
2018-11-12T15:50:25.570Z,7.93
2018-11-12T15:53:00.426Z,7.83
2018-11-12T15:55:30.577Z,8.23
2018-11-12T15:57:59.520Z,8.10
2018-11-12T16:00:28.420Z,7.53
2018-11-12T16:02:57.277Z,7.57
2018-11-12T16:05:26.318Z,7.33
2018-11-12T16:07:55.172Z,7.47
2018-11-12T16:10:24.120Z,6.60
2018-11-12T16:12:53.119Z,7.20
2018-11-12T16:15:22.605Z,8.13
2018-11-12T16:17:51.582Z,8.43
2018-11-12T16:20:24.135Z,7.73
2018-11-12T16:22:53.429Z,7.97
2018-11-12T16:25:24.447Z,8.67
2018-11-12T16:27:53.353Z,7.70
2018-11-12T16:30:22.204Z,7.30
2018-11-12T16:32:51.159Z,7.97
2018-11-12T16:35:21.903Z,7.50
2018-11-12T16:37:51.752Z,8.30
2018-11-12T16:40:20.675Z,7.03
2018-11-12T16:42:49.990Z,7.53
2018-11-12T16:45:19.015Z,8.37
2018-11-12T16:47:48.281Z,8.27
2018-11-12T16:50:17.671Z,7.87
2018-11-12T16:52:46.618Z,8.10
2018-11-12T16:55:19.513Z,8.57
2018-11-12T16:57:48.466Z,7.00
2018-11-12T17:00:18.637Z,7.70
2018-11-12T17:02:47.996Z,7.23
2018-11-12T17:05:18.563Z,8.13
2018-11-12T17:07:47.523Z,7.63
2018-11-12T17:10:17.710Z,7.03
2018-11-12T17:12:47.549Z,8.90
2018-11-12T17:15:16.710Z,9.43
2018-11-12T17:17:45.929Z,12.23
2018-11-12T17:20:16.234Z,11.73
2018-11-12T17:22:45.135Z,12.90
2018-11-12T17:25:15.048Z,12.07
2018-11-12T17:27:44.574Z,11.30
2018-11-12T17:30:16.241Z,11.13
2018-11-12T17:32:45.727Z,11.53
2018-11-12T17:35:16.150Z,12.63
2018-11-12T17:37:45.287Z,12.87
2018-11-12T17:40:16.317Z,12.80
2018-11-12T17:42:46.269Z,13.70
2018-11-12T17:45:17.425Z,12.73
2018-11-12T17:47:47.552Z,11.80
2018-11-12T17:50:16.505Z,11.77
2018-11-12T17:52:45.387Z,11.33
2018-11-12T17:55:14.313Z,8.97
2018-11-12T17:57:43.188Z,10.53
2018-11-12T18:00:15.385Z,10.63
2018-11-12T18:02:44.289Z,9.27
2018-11-12T18:05:13.305Z,10.13
2018-11-12T18:07:42.917Z,10.87
2018-11-12T18:10:15.145Z,11.53
2018-11-12T18:12:44.140Z,12.13
2018-11-12T18:15:14.470Z,12.13
2018-11-12T18:17:43.424Z,9.83
2018-11-12T18:20:16.013Z,10.43
2018-11-12T18:22:44.993Z,11.47
2018-11-12T18:25:14.412Z,11.37
2018-11-12T18:27:43.429Z,11.60
2018-11-12T18:30:15.803Z,11.17
2018-11-12T18:32:45.208Z,9.43
2018-11-12T18:35:14.232Z,9.83
2018-11-12T18:37:43.153Z,10.57
2018-11-12T18:40:13.838Z,8.87
2018-11-12T18:42:42.758Z,8.83
2018-11-12T18:45:14.272Z,10.03
2018-11-12T18:47:43.502Z,9.47
2018-11-12T18:50:15.020Z,9.23
2018-11-12T18:52:44.260Z,9.20
2018-11-12T18:55:13.140Z,8.70
2018-11-12T18:57:42.714Z,10.07
2018-11-12T19:00:13.253Z,9.57
2018-11-12T19:02:42.173Z,10.33
2018-11-12T19:05:12.958Z,10.07
2018-11-12T19:07:42.696Z,11.37
2018-11-12T19:10:14.342Z,13.23
2018-11-12T19:12:43.943Z,10.40
2018-11-12T19:15:16.035Z,12.00
2018-11-12T19:17:45.991Z,12.00
2018-11-12T19:20:15.769Z,11.00
2018-11-12T19:22:44.676Z,11.90
2018-11-12T19:25:13.987Z,11.23
2018-11-12T19:27:43.568Z,10.77
2018-11-12T19:30:16.867Z,10.93
2018-11-12T19:32:45.810Z,10.57
2018-11-12T19:35:16.204Z,10.57
2018-11-12T19:37:45.644Z,11.50
2018-11-12T19:40:16.230Z,9.27
2018-11-12T19:42:46.324Z,11.40
2018-11-12T19:45:15.690Z,9.30
2018-11-12T19:47:44.969Z,8.57
2018-11-12T19:50:15.027Z,11.30
2018-11-12T19:52:45.331Z,8.53
2018-11-12T19:55:14.483Z,8.50
2018-11-12T19:57:43.720Z,8.43
2018-11-12T20:00:13.901Z,7.53
2018-11-12T20:02:44.026Z,7.47
2018-11-12T20:05:12.945Z,7.20
2018-11-12T20:07:42.334Z,7.30
2018-11-12T20:10:13.989Z,6.83
2018-11-12T20:12:43.048Z,7.73
2018-11-12T20:15:13.121Z,8.27
2018-11-12T20:17:42.845Z,8.47
2018-11-12T20:20:14.604Z,7.67
2018-11-12T20:22:44.074Z,7.30
2018-11-12T20:25:14.200Z,7.30
2018-11-12T20:27:43.357Z,7.03
2018-11-12T20:30:17.122Z,7.27
2018-11-12T20:32:46.657Z,7.80
2018-11-12T20:35:15.719Z,5.47
2018-11-12T20:37:44.625Z,6.20
2018-11-12T20:40:14.762Z,5.57
2018-11-12T20:42:44.811Z,7.27
2018-11-12T20:45:15.061Z,6.93
2018-11-12T20:47:45.105Z,6.40
2018-11-12T20:50:14.929Z,5.43
2018-11-12T20:52:44.205Z,6.50
2018-11-12T20:55:14.124Z,5.87
2018-11-12T20:57:43.409Z,5.80
2018-11-12T21:00:15.578Z,5.47
2018-11-12T21:02:45.862Z,5.23
2018-11-12T21:05:15.129Z,5.57
2018-11-12T21:07:44.009Z,5.70
2018-11-12T21:10:16.991Z,5.43
2018-11-12T21:12:46.496Z,4.70
2018-11-12T21:15:16.534Z,6.03
2018-11-12T21:17:45.554Z,6.40
2018-11-12T21:20:20.771Z,5.90
2018-11-12T21:22:49.848Z,6.53
2018-11-12T21:25:20.463Z,5.97
2018-11-12T21:27:49.433Z,5.70
2018-11-12T21:30:19.586Z,6.27
2018-11-12T21:32:48.609Z,6.13
2018-11-12T21:35:17.452Z,4.97
2018-11-12T21:41:14.787Z,4.97
2018-11-12T21:43:43.727Z,4.40
2018-11-12T21:46:12.529Z,4.43
2018-11-12T21:48:44.737Z,4.87
2018-11-12T21:51:19.814Z,5.00
2018-11-12T21:53:49.334Z,4.83
2018-11-12T21:56:18.355Z,5.17
2018-11-12T21:58:47.543Z,5.73
2018-11-12T22:01:16.283Z,5.43
2018-11-12T22:03:45.102Z,4.83
2018-11-12T22:06:13.929Z,4.53
2018-11-12T22:08:42.881Z,5.83
2018-11-12T22:11:11.608Z,7.27
2018-11-12T22:13:54.191Z,8.77
2018-11-12T22:16:22.994Z,7.07
2018-11-12T22:18:51.812Z,6.13
2018-11-12T22:21:20.624Z,7.33
2018-11-12T22:23:49.435Z,6.33
2018-11-12T22:26:18.235Z,5.77
2018-11-12T22:28:47.052Z,7.23
2018-11-12T22:31:16.026Z,6.93
2018-11-12T22:33:44.999Z,7.50
2018-11-12T22:36:13.807Z,8.43
2018-11-12T22:38:42.805Z,7.13
2018-11-12T22:41:11.647Z,9.97
2018-11-12T22:43:40.463Z,9.37
2018-11-12T22:46:09.265Z,8.13
2018-11-12T22:48:38.102Z,5.57
2018-11-12T22:51:06.935Z,6.90
2018-11-12T22:53:36.001Z,6.27
2018-11-12T22:56:06.400Z,6.00
2018-11-12T22:58:35.395Z,6.93
2018-11-12T23:01:05.158Z,5.93
2018-11-12T23:03:33.964Z,7.00
2018-11-12T23:06:08.087Z,6.23
2018-11-12T23:08:36.918Z,6.33
2018-11-12T23:11:06.073Z,7.33
2018-11-12T23:13:34.916Z,8.77
2018-11-12T23:16:03.735Z,6.60
2018-11-12T23:18:32.775Z,7.67
2018-11-12T23:21:01.596Z,7.20
2018-11-12T23:23:30.416Z,6.90
2018-11-12T23:25:59.256Z,7.27
2018-11-12T23:28:28.093Z,7.23
2018-11-12T23:30:56.903Z,6.63
2018-11-12T23:33:25.727Z,6.90
2018-11-12T23:35:54.533Z,6.93
2018-11-12T23:38:23.347Z,6.40
2018-11-12T23:40:52.187Z,6.47
2018-11-12T23:43:21.016Z,5.73
2018-11-12T23:45:49.852Z,6.33
2018-11-12T23:48:18.820Z,7.50
2018-11-12T23:50:47.671Z,6.23
2018-11-12T23:53:16.478Z,6.23
2018-11-12T23:55:45.282Z,5.70
2018-11-12T23:58:14.117Z,6.77
